Time;durP1;ratioP1;P1;durP2;ratioP2;P2;SDS_P1;SDS_P2;PMS_P1;PMS_P2;Temp;Humidity;BMP_temperature;BMP_pressure;BME280_temperature;BME280_humidity;BME280_pressure;Samples;Min_cycle;Max_cycle;Signal;HPM_P1;HPM_P2
2022/09/05 00:00:06;200007.00;0.67;345.94;71736.00;0.24;124.76;;;;;21.70;1.00;;;;;;2273384;61;1489;-83
2022/09/05 00:02:49;77265.00;0.26;134.31;0.00;0.00;0.62;;;;;21.70;1.00;;;;;;2271511;61;1039;-84
2022/09/05 00:05:44;166223.00;0.55;287.76;71012.00;0.24;123.51;;;;;21.70;1.00;;;;;;2271440;61;1067;-84
2022/09/05 00:08:23;509772.00;1.70;878.65;92192.00;0.31;160.09;;;;;21.80;1.00;;;;;;2271123;61;1192;-84
2022/09/05 00:11:02;773958.00;2.58;1335.74;148917.00;0.50;257.94;;;;;21.60;1.00;;;;;;2270842;61;2009;-83
2022/09/05 00:13:35;984023.00;3.28;1704.20;128727.00;0.43;223.13;;;;;21.70;1.00;;;;;;2272278;61;1058;-86
2022/09/05 00:16:30;604400.00;2.01;1041.82;53514.00;0.18;93.26;;;;;22.00;1.00;;;;;;2272203;61;1046;-85
2022/09/05 00:19:09;627839.00;2.09;1082.31;8434.00;0.03;15.24;;;;;22.20;1.00;;;;;;2272076;61;1396;-85
2022/09/05 00:22:06;372327.00;1.24;642.24;28392.00;0.09;49.80;;;;;21.80;1.00;;;;;;2274895;61;1132;-85
2022/09/05 00:24:53;656096.00;2.19;1131.18;55592.00;0.19;96.86;;;;;21.70;1.00;;;;;;2271781;61;1133;-85
2022/09/05 00:27:28;861217.00;2.87;1488.10;43370.00;0.14;75.72;;;;;22.00;1.00;;;;;;2271644;61;1211;-84
2022/09/05 00:30:07;606154.00;2.02;1044.85;41907.00;0.14;73.19;;;;;22.10;1.00;;;;;;2273669;61;1485;-85
2022/09/05 00:32:55;519765.00;1.73;895.86;14497.00;0.05;25.74;;;;;22.10;1.00;;;;;;2276374;61;1986;-86
2022/09/05 00:35:42;582450.00;1.94;1003.93;4278.00;0.01;8.03;;;;;22.10;1.00;;;;;;2276356;61;1149;-85
2022/09/05 00:38:15;1708170.00;5.69;3041.31;456585.00;1.52;787.11;;;;;21.90;1.00;;;;;;2276670;61;1767;-84
2022/09/05 00:40:47;764280.00;2.55;1318.90;108266.00;0.36;187.84;;;;;22.10;1.00;;;;;;2276158;61;1323;-84
2022/09/05 00:43:21;669813.00;2.23;1154.93;124150.00;0.41;215.24;;;;;21.90;1.00;;;;;;2276107;61;1155;-84
2022/09/05 00:45:54;832930.00;2.78;1438.62;84655.00;0.28;147.08;;;;;21.70;1.00;;;;;;2276231;61;2175;-84
2022/09/05 00:48:31;1059856.00;3.53;1838.78;147773.00;0.49;255.97;;;;;21.60;1.00;;;;;;2272764;61;1105;-84
2022/09/05 00:51:20;1020177.00;3.40;1768.24;114316.00;0.38;198.28;;;;;21.40;1.00;;;;;;2271799;61;2044;-85
2022/09/05 00:54:02;720700.00;2.40;1243.15;26986.00;0.09;47.37;;;;;21.50;1.00;;;;;;2272304;61;1141;-84
2022/09/05 00:56:57;681881.00;2.27;1175.83;59950.00;0.20;104.39;;;;;21.40;1.00;;;;;;2272227;61;1068;-85
2022/09/05 00:59:51;1023384.00;3.41;1773.93;89105.00;0.30;154.76;;;;;21.60;1.00;;;;;;2276258;61;1486;-87
2022/09/05 01:02:31;1168138.00;3.89;2032.72;181154.00;0.60;313.48;;;;;21.70;1.00;;;;;;2276381;61;1125;-85
2022/09/05 01:05:06;393389.00;1.31;678.44;20415.00;0.07;35.99;;;;;21.70;1.00;;;;;;2274159;61;1134;-85
2022/09/05 01:07:50;506645.00;1.69;873.27;79729.00;0.27;138.57;;;;;21.60;1.00;;;;;;2276183;61;1428;-84
2022/09/05 01:10:27;358482.00;1.19;618.44;65874.00;0.22;114.63;;;;;21.50;1.00;;;;;;2275844;61;1487;-85
2022/09/05 01:13:15;269254.00;0.90;465.06;68330.00;0.23;118.87;;;;;21.60;1.00;;;;;;2275592;61;1986;-84
2022/09/05 01:15:54;163079.00;0.54;282.34;66014.00;0.22;114.87;;;;;21.70;1.00;;;;;;2275770;61;1440;-85
2022/09/05 01:18:38;342211.00;1.14;590.47;69659.00;0.23;121.17;;;;;21.70;1.00;;;;;;2276005;61;1764;-85
2022/09/05 01:21:49;0.00;0.00;0.62;0.00;0.00;0.62;;;;;21.70;1.00;;;;;;2276075;61;1144;-86
2022/09/05 01:24:52;278293.00;0.93;480.60;64925.00;0.22;112.99;;;;;21.30;1.00;;;;;;2272639;61;1150;-86
2022/09/05 01:27:51;206381.00;0.69;356.91;65672.00;0.22;114.28;;;;;21.30;1.00;;;;;;2271712;61;1153;-85
2022/09/05 01:30:22;897157.00;2.99;1551.13;74299.00;0.25;129.19;;;;;21.30;1.00;;;;;;2270329;61;1526;-84
2022/09/05 01:33:01;518781.00;1.73;894.17;100093.00;0.33;173.73;;;;;21.10;1.00;;;;;;2272483;61;1998;-84
2022/09/05 01:36:04;398241.00;1.33;686.78;73078.00;0.24;127.08;;;;;21.10;1.00;;;;;;2276233;61;1542;-86
2022/09/05 01:38:42;1492672.00;4.98;2629.34;179494.00;0.60;310.62;;;;;21.30;1.00;;;;;;2276444;61;1309;-86
2022/09/05 01:41:22;1101055.00;3.67;1912.31;90143.00;0.30;156.55;;;;;21.60;1.00;;;;;;2276127;61;1443;-84
2022/09/05 01:44:09;989926.00;3.30;1714.64;197501.00;0.66;341.62;;;;;21.70;1.00;;;;;;2276029;61;1431;-85
2022/09/05 01:46:44;707844.00;2.36;1220.84;47832.00;0.16;83.44;;;;;21.70;1.00;;;;;;2276234;61;1191;-83
2022/09/05 01:49:23;229771.00;0.77;397.15;70079.00;0.23;121.90;;;;;21.50;1.00;;;;;;2276215;61;1416;-84
2022/09/05 01:52:16;211285.00;0.70;365.35;77818.00;0.26;135.27;;;;;21.50;1.00;;;;;;2276564;61;2002;-85
2022/09/05 01:54:56;166970.00;0.56;289.05;68787.00;0.23;119.66;;;;;21.40;1.00;;;;;;2273075;61;1495;-84
2022/09/05 01:57:35;166743.00;0.56;288.66;65239.00;0.22;113.53;;;;;21.40;1.00;;;;;;2271661;61;1236;-83
2022/09/05 02:00:11;107983.00;0.36;187.35;0.00;0.00;0.62;;;;;21.40;1.00;;;;;;2271416;61;1334;-84
2022/09/05 02:02:52;0.00;0.00;0.62;0.00;0.00;0.62;;;;;21.30;1.00;;;;;;2272067;61;1308;-85
2022/09/05 02:05:45;113025.00;0.38;196.05;0.00;0.00;0.62;;;;;21.00;1.00;;;;;;2271907;61;1131;-85
2022/09/05 02:08:32;0.00;0.00;0.62;0.00;0.00;0.62;;;;;20.90;1.00;;;;;;2272196;61;1256;-84
2022/09/05 02:11:06;191956.00;0.64;332.08;0.00;0.00;0.62;;;;;20.40;1.00;;;;;;2271712;61;1526;-84
2022/09/05 02:13:53;0.00;0.00;0.62;0.00;0.00;0.62;;;;;20.50;1.00;;;;;;2272043;61;1940;-84
2022/09/05 02:16:32;0.00;0.00;0.62;0.00;0.00;0.62;;;;;20.70;1.00;;;;;;2276139;61;1106;-84
2022/09/05 02:19:08;199680.00;0.67;345.37;0.00;0.00;0.62;;;;;20.70;1.00;;;;;;2275845;61;1498;-84
2022/09/05 02:21:47;22583.00;0.08;39.74;0.00;0.00;0.62;;;;;21.10;1.00;;;;;;2276101;61;1112;-84
2022/09/05 02:24:20;101982.00;0.34;176.99;35767.00;0.12;62.56;;;;;21.20;1.00;;;;;;2276058;61;1161;-85
2022/09/05 02:27:03;10757.00;0.04;19.26;0.00;0.00;0.62;;;;;21.20;1.00;;;;;;2275826;61;1525;-84
2022/09/05 02:29:38;0.00;0.00;0.62;0.00;0.00;0.62;;;;;20.50;1.00;;;;;;2275692;61;1487;-84
2022/09/05 02:32:18;67013.00;0.22;116.60;0.00;0.00;0.62;;;;;20.80;1.00;;;;;;2275846;61;2004;-84
2022/09/05 02:34:57;147995.00;0.49;256.35;0.00;0.00;0.62;;;;;20.80;1.00;;;;;;2273819;61;1572;-83
2022/09/05 02:37:30;130110.00;0.43;225.52;0.00;0.00;0.62;;;;;20.90;1.00;;;;;;2272134;61;1091;-83
2022/09/05 02:40:05;0.00;0.00;0.62;0.00;0.00;0.62;;;;;20.90;1.00;;;;;;2272163;61;1454;-84
2022/09/05 02:42:39;48186.00;0.16;84.05;0.00;0.00;0.62;;;;;21.00;1.00;;;;;;2272056;61;1394;-83
2022/09/05 02:45:20;22384.00;0.07;39.40;0.00;0.00;0.62;;;;;20.80;1.00;;;;;;2271302;61;1067;-83
2022/09/05 02:47:56;482183.00;1.61;831.15;197987.00;0.66;342.46;;;;;20.50;1.00;;;;;;2272050;61;1173;-83
2022/09/05 02:50:45;0.00;0.00;0.62;0.00;0.00;0.62;;;;;20.40;1.00;;;;;;2272006;61;1391;-84
2022/09/05 02:53:16;227859.00;0.76;393.87;26366.00;0.09;46.29;;;;;20.40;1.00;;;;;;2272171;61;1986;-84
2022/09/05 02:56:10;8500.00;0.03;15.35;0.00;0.00;0.62;;;;;20.20;1.00;;;;;;2275643;61;1181;-86
2022/09/05 02:58:58;46690.00;0.16;81.46;0.00;0.00;0.62;;;;;20.40;1.00;;;;;;2275626;61;1463;-84
2022/09/05 03:01:50;0.00;0.00;0.62;0.00;0.00;0.62;;;;;20.50;1.00;;;;;;2275649;61;1179;-83
2022/09/05 03:04:33;343686.00;1.15;593.01;0.00;0.00;0.62;;;;;20.70;1.00;;;;;;2275497;61;1419;-83
2022/09/05 03:07:16;14673.00;0.05;26.04;0.00;0.00;0.62;;;;;20.80;1.00;;;;;;2271882;61;1182;-84
2022/09/05 03:10:12;593359.00;1.98;1022.75;85764.00;0.29;148.99;;;;;20.70;1.00;;;;;;2271826;61;1499;-85
2022/09/05 03:13:08;136316.00;0.45;236.22;0.00;0.00;0.62;;;;;20.00;1.00;;;;;;2271693;61;1987;-84
2022/09/05 03:16:16;394088.00;1.31;679.64;36705.00;0.12;64.19;;;;;20.10;1.00;;;;;;2271452;61;1176;-85
2022/09/05 03:19:16;280047.00;0.93;483.62;0.00;0.00;0.62;;;;;20.20;1.00;;;;;;2271796;61;1446;-85
2022/09/05 03:22:21;518869.00;1.73;894.32;12822.00;0.04;22.84;;;;;19.70;1.00;;;;;;2271317;61;1233;-84
2022/09/05 03:25:50;599463.00;2.00;1033.29;33406.00;0.11;58.48;;;;;19.30;1.00;;;;;;2272737;61;1125;-85
2022/09/05 03:29:07;187557.00;0.63;324.50;27281.00;0.09;47.88;;;;;19.10;1.00;;;;;;2270786;61;1501;-83
2022/09/05 03:32:07;0.00;0.00;0.62;0.00;0.00;0.62;;;;;19.10;1.00;;;;;;2263004;61;1055;-83
2022/09/05 03:35:16;46365.00;0.15;80.90;0.00;0.00;0.62;;;;;18.90;1.00;;;;;;2275764;61;1781;-83
2022/09/05 03:38:29;155714.00;0.52;269.65;0.00;0.00;0.62;;;;;18.70;1.20;;;;;;2264912;61;1297;-83
2022/09/05 03:41:18;17555.00;0.06;31.04;0.00;0.00;0.62;;;;;18.90;1.10;;;;;;2271685;61;1334;-83
2022/09/05 03:44:11;88446.00;0.29;153.62;0.00;0.00;0.62;;;;;18.80;1.00;;;;;;2271331;61;1194;-83
2022/09/05 03:46:57;0.00;0.00;0.62;0.00;0.00;0.62;;;;;18.60;2.40;;;;;;2274912;61;1138;-83
2022/09/05 03:49:50;158508.00;0.53;274.47;40207.00;0.13;70.25;;;;;18.80;1.50;;;;;;2275805;61;1474;-83
2022/09/05 03:52:31;23177.00;0.08;40.77;0.00;0.00;0.62;;;;;18.80;1.00;;;;;;2272205;61;1998;-83
2022/09/05 03:55:15;0.00;0.00;0.62;0.00;0.00;0.62;;;;;19.00;2.00;;;;;;2275785;61;1149;-83
2022/09/05 03:58:25;8339.00;0.03;15.07;0.00;0.00;0.62;;;;;19.20;1.00;;;;;;2271626;61;1089;-84
2022/09/05 04:01:05;48034.00;0.16;83.79;0.00;0.00;0.62;;;;;19.40;1.00;;;;;;2275799;61;1560;-84
2022/09/05 04:03:40;36071.00;0.12;63.09;0.00;0.00;0.62;;;;;19.50;1.00;;;;;;2275987;61;2253;-83
2022/09/05 04:06:15;88377.00;0.29;153.51;0.00;0.00;0.62;;;;;19.80;1.00;;;;;;2274403;61;1458;-85
2022/09/05 04:08:48;116266.00;0.39;201.64;20176.00;0.07;35.57;;;;;20.10;1.00;;;;;;2272123;61;1550;-83
2022/09/05 04:11:32;5248.00;0.02;9.72;0.00;0.00;0.62;;;;;20.10;1.00;;;;;;2272837;61;2176;-83
2022/09/05 04:14:05;74014.00;0.25;128.70;0.00;0.00;0.62;;;;;19.90;1.00;;;;;;2272591;61;1994;-84
2022/09/05 04:16:47;0.00;0.00;0.62;0.00;0.00;0.62;;;;;19.80;1.00;;;;;;2275165;61;1143;-83
2022/09/05 04:19:22;180133.00;0.60;311.72;7746.00;0.03;14.04;;;;;19.80;1.00;;;;;;2276454;61;2148;-82
2022/09/05 04:21:57;169049.00;0.56;292.63;0.00;0.00;0.62;;;;;19.90;1.00;;;;;;2276630;61;1490;-84
2022/09/05 04:24:33;203495.00;0.68;351.94;102162.00;0.34;177.30;;;;;20.20;1.00;;;;;;2276586;61;1552;-83
2022/09/05 04:27:20;314544.00;1.05;542.92;35413.00;0.12;61.95;;;;;20.10;1.00;;;;;;2272842;61;1576;-83
2022/09/05 04:30:00;344872.00;1.15;595.05;57823.00;0.19;100.71;;;;;20.10;1.00;;;;;;2271174;61;1587;-83
2022/09/05 04:32:45;447904.00;1.49;772.18;27908.00;0.09;48.96;;;;;20.20;1.00;;;;;;2272195;61;1931;-83
2022/09/05 04:35:27;138608.00;0.46;240.17;0.00;0.00;0.62;;;;;20.20;1.00;;;;;;2272356;61;1136;-83
2022/09/05 04:37:58;442568.00;1.48;763.00;71299.00;0.24;124.01;;;;;20.20;1.00;;;;;;2272321;61;1530;-83
2022/09/05 04:40:40;139336.00;0.46;241.43;0.00;0.00;0.62;;;;;19.90;1.00;;;;;;2272581;61;1555;-85
2022/09/05 04:43:13;182601.00;0.61;315.97;0.00;0.00;0.62;;;;;19.80;1.00;;;;;;2271382;61;1137;-83
2022/09/05 04:45:47;26920.00;0.09;47.25;0.00;0.00;0.62;;;;;19.90;1.00;;;;;;2271978;61;1177;-82
2022/09/05 04:48:22;427635.00;1.43;737.32;78492.00;0.26;136.43;;;;;20.00;1.00;;;;;;2271929;61;1102;-84
2022/09/05 04:51:06;286188.00;0.95;494.18;33065.00;0.11;57.89;;;;;20.40;1.00;;;;;;2272067;61;1446;-84
2022/09/05 04:54:14;849726.00;2.83;1467.99;104384.00;0.35;181.14;;;;;20.70;1.00;;;;;;2271984;61;2008;-85
2022/09/05 04:56:47;119261.00;0.40;206.81;10417.00;0.03;18.67;;;;;20.70;1.00;;;;;;2273603;61;1421;-83
2022/09/05 04:59:22;0.00;0.00;0.62;0.00;0.00;0.62;;;;;20.50;1.00;;;;;;2275637;61;1598;-84
2022/09/05 05:01:55;70398.00;0.23;122.45;0.00;0.00;0.62;;;;;20.60;1.00;;;;;;2275744;61;1137;-83
2022/09/05 05:04:26;55055.00;0.18;95.93;0.00;0.00;0.62;;;;;20.60;1.00;;;;;;2276094;61;1535;-83
2022/09/05 05:07:04;0.00;0.00;0.62;0.00;0.00;0.62;;;;;20.80;1.00;;;;;;2276061;61;1146;-84
2022/09/05 05:09:40;92531.00;0.31;160.68;0.00;0.00;0.62;;;;;20.50;1.00;;;;;;2276240;61;1456;-84
2022/09/05 05:12:19;132060.00;0.44;228.88;0.00;0.00;0.62;;;;;20.30;1.00;;;;;;2276046;61;1112;-84
2022/09/05 05:14:53;157022.00;0.52;271.91;0.00;0.00;0.62;;;;;20.40;1.00;;;;;;2272999;61;1382;-84
2022/09/05 05:17:33;174244.00;0.58;301.58;0.00;0.00;0.62;;;;;20.70;1.00;;;;;;2272700;61;1129;-86
2022/09/05 05:20:10;166496.00;0.55;288.23;0.00;0.00;0.62;;;;;20.90;1.00;;;;;;2271805;61;1432;-85
2022/09/05 05:22:48;98824.00;0.33;171.54;0.00;0.00;0.62;;;;;21.20;1.00;;;;;;2275550;61;1078;-85
2022/09/05 05:25:16;195985.00;0.65;339.01;0.00;0.00;0.62;;;;;21.30;1.00;;;;;;2275780;61;1148;-84
2022/09/05 05:27:49;162539.00;0.54;281.41;0.00;0.00;0.62;;;;;21.30;1.00;;;;;;2275463;61;2019;-83
2022/09/05 05:30:28;201157.00;0.67;347.92;0.00;0.00;0.62;;;;;21.40;1.00;;;;;;2274209;61;2067;-85
2022/09/05 05:32:57;170957.00;0.57;295.92;0.00;0.00;0.62;;;;;21.90;1.00;;;;;;2271570;61;1993;-83
2022/09/05 05:35:28;0.00;0.00;0.62;0.00;0.00;0.62;;;;;22.60;1.00;;;;;;2271639;61;2181;-84
2022/09/05 05:38:07;189754.00;0.63;328.29;0.00;0.00;0.62;;;;;23.10;1.00;;;;;;2272523;61;1141;-86
2022/09/05 05:40:39;105872.00;0.35;183.71;0.00;0.00;0.62;;;;;23.70;1.00;;;;;;2272596;61;2138;-85
2022/09/05 05:43:20;0.00;0.00;0.62;0.00;0.00;0.62;;;;;24.10;1.00;;;;;;2274246;61;1137;-83
2022/09/05 05:45:58;155110.00;0.52;268.61;0.00;0.00;0.62;;;;;24.60;1.00;;;;;;2274763;61;1105;-83
2022/09/05 05:48:33;122045.00;0.41;211.61;0.00;0.00;0.62;;;;;24.80;1.00;;;;;;2275356;61;1561;-84
2022/09/05 05:51:24;59954.00;0.20;104.40;0.00;0.00;0.62;;;;;25.00;1.00;;;;;;2274634;61;1530;-84
2022/09/05 05:54:00;123289.00;0.41;213.76;0.00;0.00;0.62;;;;;25.30;1.00;;;;;;2275079;61;2024;-83
2022/09/05 05:56:45;263501.00;0.88;455.17;25669.00;0.09;45.09;;;;;25.90;1.00;;;;;;2275678;61;1163;-84
2022/09/05 05:59:46;132792.00;0.44;230.14;0.00;0.00;0.62;;;;;26.40;1.00;;;;;;2275492;61;1483;-83
2022/09/05 06:03:05;0.00;0.00;0.62;0.00;0.00;0.62;;;;;26.60;1.00;;;;;;2274543;61;1189;-83
2022/09/05 06:05:58;17051.00;0.06;30.16;0.00;0.00;0.62;;;;;27.00;1.00;;;;;;2275418;61;1129;-83
2022/09/05 06:08:52;53566.00;0.18;93.35;0.00;0.00;0.62;;;;;27.50;1.00;;;;;;2275285;61;2309;-83
2022/09/05 06:11:47;80755.00;0.27;140.34;9000.00;0.03;16.22;;;;;27.50;1.00;;;;;;2275671;61;1159;-85
2022/09/05 06:14:48;86250.00;0.29;149.83;0.00;0.00;0.62;;;;;27.40;1.00;;;;;;2276030;61;2005;-84
2022/09/05 06:17:36;45541.00;0.15;79.47;0.00;0.00;0.62;;;;;27.20;1.00;;;;;;2276319;61;1368;-89
2022/09/05 06:20:51;258120.00;0.86;445.92;0.00;0.00;0.62;;;;;27.00;1.00;;;;;;2276375;61;1299;-87
2022/09/05 06:23:57;489923.00;1.63;844.48;36387.00;0.12;63.64;;;;;27.40;1.00;;;;;;2276675;61;1012;-87
2022/09/05 06:27:09;686486.00;2.29;1183.81;29338.00;0.10;51.44;;;;;28.10;1.00;;;;;;2276631;61;1118;-86
2022/09/05 06:29:48;767715.00;2.56;1324.88;48039.00;0.16;83.79;;;;;28.20;1.00;;;;;;2276585;61;1273;-88
2022/09/05 06:32:33;764275.00;2.55;1318.89;45923.00;0.15;80.13;;;;;28.30;1.00;;;;;;2276514;61;1114;-86
2022/09/05 06:35:21;1019569.00;3.40;1767.16;146200.00;0.49;253.26;;;;;28.60;1.00;;;;;;2276274;61;1189;-88
2022/09/05 06:38:04;430131.00;1.43;741.61;0.00;0.00;0.62;;;;;28.70;1.00;;;;;;2276055;61;1592;-87
2022/09/05 06:40:41;451338.00;1.50;778.08;53353.00;0.18;92.98;;;;;28.80;1.00;;;;;;2276480;61;1457;-87
2022/09/05 06:43:36;257180.00;0.86;444.30;0.00;0.00;0.62;;;;;28.70;1.00;;;;;;2276457;61;934;-88
2022/09/05 06:46:29;282865.00;0.94;488.46;0.00;0.00;0.62;;;;;28.60;1.00;;;;;;2276482;61;1466;-87
2022/09/05 06:49:05;402709.00;1.34;694.46;0.00;0.00;0.62;;;;;28.90;1.00;;;;;;2276406;61;1541;-85
2022/09/05 06:52:21;251762.00;0.84;434.98;0.00;0.00;0.62;;;;;29.70;1.00;;;;;;2276525;61;1554;-87
2022/09/05 06:55:26;104666.00;0.35;181.63;0.00;0.00;0.62;;;;;29.80;1.00;;;;;;2267856;61;1980;-87
2022/09/05 06:58:35;0.00;0.00;0.62;0.00;0.00;0.62;;;;;29.90;1.00;;;;;;2267849;61;1465;-87
2022/09/05 07:01:05;318902.00;1.06;550.41;59329.00;0.20;103.32;;;;;30.00;1.00;;;;;;2267908;61;1421;-86
2022/09/05 07:03:53;251267.00;0.84;434.13;0.00;0.00;0.62;;;;;30.10;1.00;;;;;;2267854;61;1478;-85
2022/09/05 07:06:31;151970.00;0.51;263.20;0.00;0.00;0.62;;;;;29.60;1.00;;;;;;2267846;61;2270;-87
2022/09/05 07:09:21;299416.00;1.00;516.92;12726.00;0.04;22.67;;;;;29.60;1.00;;;;;;2267822;61;1340;-86
2022/09/05 07:12:02;211754.00;0.71;366.15;65525.00;0.22;114.03;;;;;29.70;1.00;;;;;;2267815;61;1186;-86
2022/09/05 07:14:34;139991.00;0.47;242.56;0.00;0.00;0.62;;;;;30.20;1.00;;;;;;2267439;61;2005;-86
2022/09/05 07:17:10;414878.00;1.38;715.38;81732.00;0.27;142.03;;;;;30.60;1.00;;;;;;2267647;61;1062;-87
2022/09/05 07:19:45;324196.00;1.08;559.51;67275.00;0.22;117.05;;;;;30.60;1.00;;;;;;2267786;61;1620;-87
2022/09/05 07:22:28;115321.00;0.38;200.01;0.00;0.00;0.62;;;;;30.90;1.00;;;;;;2267817;61;1462;-85
2022/09/05 07:24:57;83528.00;0.28;145.13;0.00;0.00;0.62;;;;;30.90;1.00;;;;;;2269363;61;1443;-86
2022/09/05 07:27:33;145289.00;0.48;251.69;0.00;0.00;0.62;;;;;30.90;1.00;;;;;;2276382;61;1002;-86
2022/09/05 07:30:01;7675.00;0.03;13.92;0.00;0.00;0.62;;;;;31.20;1.00;;;;;;2276287;61;1501;-86
2022/09/05 07:32:31;63537.00;0.21;110.59;0.00;0.00;0.62;;;;;31.70;1.00;;;;;;2276835;61;1109;-87
2022/09/05 07:35:02;79493.00;0.26;138.16;0.00;0.00;0.62;;;;;32.10;1.00;;;;;;2277001;61;2007;-87
2022/09/05 07:37:38;179206.00;0.60;310.12;0.00;0.00;0.62;;;;;32.00;1.00;;;;;;2277091;61;1026;-86
2022/09/05 07:40:11;171155.00;0.57;296.26;2950.00;0.01;5.73;;;;;31.10;1.00;;;;;;2276944;61;1313;-86
2022/09/05 07:42:43;146910.00;0.49;254.48;0.00;0.00;0.62;;;;;31.10;1.00;;;;;;2277031;61;1434;-87
2022/09/05 07:45:18;327622.00;1.09;565.40;711.00;0.00;1.85;;;;;31.40;1.00;;;;;;2276979;61;1553;-86
2022/09/05 07:47:59;236948.00;0.79;409.50;37443.00;0.12;65.46;;;;;31.90;1.00;;;;;;2277024;61;1066;-86
2022/09/05 07:50:29;59084.00;0.20;102.89;0.00;0.00;0.62;;;;;32.80;1.00;;;;;;2276968;61;1371;-87
2022/09/05 07:52:59;238832.00;0.80;412.74;0.00;0.00;0.62;;;;;31.90;1.00;;;;;;2277031;61;1020;-84
2022/09/05 07:55:33;78355.00;0.26;136.20;0.00;0.00;0.62;;;;;31.70;1.00;;;;;;2277005;61;1654;-85
2022/09/05 07:58:06;0.00;0.00;0.62;0.00;0.00;0.62;;;;;31.50;1.00;;;;;;2277054;61;1132;-85
2022/09/05 08:00:35;13795.00;0.05;24.52;0.00;0.00;0.62;;;;;32.20;1.00;;;;;;2276954;61;1484;-85
2022/09/05 08:03:10;26758.00;0.09;46.97;0.00;0.00;0.62;;;;;32.50;1.00;;;;;;2276890;61;1172;-85
2022/09/05 08:05:44;118127.00;0.39;204.85;0.00;0.00;0.62;;;;;32.50;1.00;;;;;;2276926;61;2111;-85
2022/09/05 08:08:16;195939.00;0.65;338.93;0.00;0.00;0.62;;;;;31.60;1.00;;;;;;2276930;61;1438;-87
2022/09/05 08:10:48;384429.00;1.28;663.04;31938.00;0.11;55.94;;;;;31.20;1.00;;;;;;2276943;61;1380;-85
2022/09/05 08:13:19;19392.00;0.06;34.22;0.00;0.00;0.62;;;;;31.50;1.00;;;;;;2276893;61;1913;-86
2022/09/05 08:15:51;0.00;0.00;0.62;0.00;0.00;0.62;;;;;31.70;1.00;;;;;;2276966;61;1605;-87
2022/09/05 08:18:24;165964.00;0.55;287.31;0.00;0.00;0.62;;;;;31.50;1.00;;;;;;2276929;61;1142;-85
2022/09/05 08:20:55;184256.00;0.61;318.82;55410.00;0.18;96.54;;;;;32.50;1.00;;;;;;2276913;61;1452;-86
2022/09/05 08:23:49;277811.00;0.93;479.77;35496.00;0.12;62.10;;;;;32.80;1.00;;;;;;2276774;61;1462;-86
2022/09/05 08:26:33;146452.00;0.49;253.69;0.00;0.00;0.62;;;;;32.50;1.00;;;;;;2276789;61;1482;-86
2022/09/05 08:29:10;178773.00;0.60;309.38;0.00;0.00;0.62;;;;;31.90;1.00;;;;;;2276877;61;1354;-85
2022/09/05 08:31:40;105027.00;0.35;182.25;0.00;0.00;0.62;;;;;31.60;1.00;;;;;;2276931;61;1540;-87
2022/09/05 08:34:14;192779.00;0.64;333.49;0.00;0.00;0.62;;;;;31.00;1.00;;;;;;2276880;61;1916;-87
2022/09/05 08:36:45;11140.00;0.04;19.92;0.00;0.00;0.62;;;;;31.20;1.00;;;;;;2276922;61;1466;-87
2022/09/05 08:39:16;123002.00;0.41;213.26;0.00;0.00;0.62;;;;;31.70;1.00;;;;;;2276832;61;1393;-86
2022/09/05 08:41:59;206021.00;0.69;356.29;0.00;0.00;0.62;;;;;30.60;1.00;;;;;;2276864;61;1158;-86
2022/09/05 08:44:36;201775.00;0.67;348.98;0.00;0.00;0.62;;;;;30.80;1.00;;;;;;2276571;61;1620;-87
2022/09/05 08:47:17;348729.00;1.16;601.68;60577.00;0.20;105.47;;;;;30.80;1.00;;;;;;2276763;61;1469;-86
2022/09/05 08:50:13;359138.00;1.20;619.57;65806.00;0.22;114.51;;;;;30.50;1.00;;;;;;2276752;61;1463;-86
2022/09/05 08:52:54;369259.00;1.23;636.96;144349.00;0.48;250.07;;;;;30.70;1.00;;;;;;2276867;61;1505;-85
2022/09/05 08:55:38;376402.00;1.25;649.24;99520.00;0.33;172.74;;;;;30.80;1.00;;;;;;2276812;61;2022;-86
2022/09/05 08:58:36;384017.00;1.28;662.33;135196.00;0.45;234.29;;;;;30.70;1.00;;;;;;2276910;61;991;-86
2022/09/05 09:01:15;680662.00;2.27;1173.72;0.00;0.00;0.62;;;;;30.30;1.00;;;;;;2276757;61;1662;-86
2022/09/05 09:04:11;630510.00;2.10;1086.93;0.00;0.00;0.62;;;;;29.80;1.00;;;;;;2276866;61;1032;-87
2022/09/05 09:07:09;419046.00;1.40;722.55;0.00;0.00;0.62;;;;;29.90;1.00;;;;;;2276769;61;1572;-87
2022/09/05 09:09:46;116385.00;0.39;201.85;0.00;0.00;0.62;;;;;29.60;1.00;;;;;;2276636;61;1464;-86
2022/09/05 09:12:29;0.00;0.00;0.62;0.00;0.00;0.62;;;;;29.70;1.00;;;;;;2276793;61;1037;-88
2022/09/05 09:15:00;0.00;0.00;0.62;0.00;0.00;0.62;;;;;29.90;1.00;;;;;;2276753;61;1909;-87
2022/09/05 09:17:41;0.00;0.00;0.62;0.00;0.00;0.62;;;;;29.30;1.00;;;;;;2276732;61;1191;-85
2022/09/05 09:20:21;29127.00;0.10;51.07;0.00;0.00;0.62;;;;;29.50;1.00;;;;;;2276703;61;1388;-85
2022/09/05 09:22:57;151620.00;0.51;262.60;0.00;0.00;0.62;;;;;29.20;1.00;;;;;;2276753;61;1433;-87
2022/09/05 09:25:29;67341.00;0.22;117.17;0.00;0.00;0.62;;;;;29.10;1.00;;;;;;2276622;61;1446;-86
2022/09/05 09:28:20;161209.00;0.54;279.12;0.00;0.00;0.62;;;;;29.10;1.00;;;;;;2276659;61;1544;-86
2022/09/05 09:31:07;137957.00;0.46;239.05;0.00;0.00;0.62;;;;;29.00;1.00;;;;;;2275803;61;1461;-86
2022/09/05 09:33:43;118070.00;0.39;204.75;0.00;0.00;0.62;;;;;29.00;1.00;;;;;;2276602;61;2022;-87
2022/09/05 09:36:36;328893.00;1.10;567.58;7599.00;0.03;13.79;;;;;29.20;1.00;;;;;;2276656;61;1252;-86
2022/09/05 09:39:18;0.00;0.00;0.62;0.00;0.00;0.62;;;;;29.30;1.00;;;;;;2272176;61;1431;-85
2022/09/05 09:41:59;40152.00;0.13;70.15;0.00;0.00;0.62;;;;;29.60;1.00;;;;;;2276655;61;1053;-85
2022/09/05 09:44:56;188364.00;0.63;325.89;0.00;0.00;0.62;;;;;29.10;1.00;;;;;;2276610;61;1543;-87
2022/09/05 09:47:46;64819.00;0.22;112.81;0.00;0.00;0.62;;;;;29.50;1.00;;;;;;2276688;61;1907;-87
2022/09/05 09:50:25;246971.00;0.82;426.74;0.00;0.00;0.62;;;;;29.10;1.00;;;;;;2276544;61;1636;-86
2022/09/05 09:53:18;80702.00;0.27;140.25;0.00;0.00;0.62;;;;;29.40;1.00;;;;;;2276635;61;1465;-86
2022/09/05 09:56:24;115032.00;0.38;199.51;0.00;0.00;0.62;;;;;29.80;1.00;;;;;;2276599;61;1995;-85
2022/09/05 09:59:23;131588.00;0.44;228.07;0.00;0.00;0.62;;;;;29.90;1.00;;;;;;2276574;61;1368;-86
2022/09/05 10:02:09;2214.00;0.01;4.46;0.00;0.00;0.62;;;;;29.80;1.00;;;;;;2276508;61;2063;-87
2022/09/05 10:04:54;273550.00;0.91;472.45;0.00;0.00;0.62;;;;;29.70;1.00;;;;;;2276603;61;1532;-86
2022/09/05 10:07:35;162754.00;0.54;281.78;0.00;0.00;0.62;;;;;29.70;1.00;;;;;;2276517;61;1456;-86
2022/09/05 10:10:25;144527.00;0.48;250.37;0.00;0.00;0.62;;;;;29.90;1.00;;;;;;2276535;61;1454;-86
2022/09/05 10:13:27;219232.00;0.73;379.02;43245.00;0.14;75.50;;;;;29.90;1.00;;;;;;2276490;61;1505;-85
2022/09/05 10:16:29;120209.00;0.40;208.44;0.00;0.00;0.62;;;;;29.80;1.00;;;;;;2276440;61;1940;-87
2022/09/05 10:19:27;482566.00;1.61;831.81;0.00;0.00;0.62;;;;;29.50;1.00;;;;;;2271912;61;1735;-85
2022/09/05 10:22:19;312975.00;1.04;540.22;108788.00;0.36;188.74;;;;;29.40;1.00;;;;;;2276489;61;1419;-88
2022/09/05 10:25:24;172686.00;0.58;298.89;41459.00;0.14;72.41;;;;;29.40;1.00;;;;;;2276363;61;1588;-86
2022/09/05 10:28:07;208713.00;0.70;360.92;1988.00;0.01;4.07;;;;;29.70;1.00;;;;;;2276470;61;1647;-87
2022/09/05 10:30:52;661359.00;2.20;1140.29;164808.00;0.55;285.32;;;;;29.70;1.00;;;;;;2276438;61;1541;-86
2022/09/05 10:33:50;140833.00;0.47;244.01;0.00;0.00;0.62;;;;;30.10;1.00;;;;;;2276521;61;1082;-87
2022/09/05 10:36:26;709263.00;2.36;1223.31;144880.00;0.48;250.98;;;;;30.50;1.00;;;;;;2275675;61;1265;-86
2022/09/05 10:39:15;162914.00;0.54;282.06;0.00;0.00;0.62;;;;;30.60;1.00;;;;;;2276336;61;1416;-85
2022/09/05 10:41:48;191812.00;0.64;331.83;3468.00;0.01;6.63;;;;;30.50;1.00;;;;;;2276172;61;1560;-87
2022/09/05 10:44:32;173254.00;0.58;299.87;0.00;0.00;0.62;;;;;30.60;1.00;;;;;;2276364;61;1086;-86
2022/09/05 10:47:12;167886.00;0.56;290.63;0.00;0.00;0.62;;;;;30.70;1.00;;;;;;2276452;61;1079;-88
2022/09/05 10:49:44;200384.00;0.67;346.58;63968.00;0.21;111.34;;;;;30.60;1.00;;;;;;2276394;61;1340;-86
2022/09/05 10:52:15;224997.00;0.75;388.94;0.00;0.00;0.62;;;;;30.80;1.00;;;;;;2276454;61;929;-85
2022/09/05 10:55:10;222444.00;0.74;384.55;0.00;0.00;0.62;;;;;30.90;1.00;;;;;;2276406;61;1907;-87